Apple Springs, Texas
Current Conditions -  °F | °C
As of 9:53 PM on Saturday 20 Dec 2014 (Local Time) from KLFK Reporting Station
Scattered Clouds Scattered Clouds  
Wind Chill: 46°   Ceiling: Unl
Heat Index: 46°   Visibility: 7mi
Dew Point: 41°   Wind: 3mph
Humidity: 83%   Direction: 40°NE
Pressure: 30.2"   Gusts: NA
Location:  31.22°N, 94.97°W
Report Text: KLFK 210353Z AUTO 04003KT 7SM SCT018 08/05 A3020 RMK AO2 SLP225 T00780050
Loading
Personal Weather Stations






























Interactive Weather Map New forecast layout! Learn more

10-Day Weather Forecast

Advertisements
Track Severe Weather on mobile